Terminal Aerodrome Forecast
Issued by NWS Jackson, MS

Home | Current Version | Previous Version | Text Only | Print | Product List | Glossary On
Versions: 1 2 3 4 5 6 7 8 9 10 11 12 13 14 15
000
FTUS44 KJAN 021948 AAA
TAFMEI
TAF AMD
KMEI 021948Z 0220/0318 18005KT P6SM VCTS FEW020 BKN050CB
     FM030100 19003KT P6SM BKN250
     FM031100 00000KT 4SM BR SCT250
     FM031330 VRB03KT P6SM SCT250=

USA.gov is the U.S. government's official web portal to all federal, state and local government web resources and services.